createdAt,value
2018-05-31T00:01:46.266Z,23.93
2018-05-31T00:04:20.873Z,23.85
2018-05-31T00:06:56.110Z,23.73
2018-05-31T00:09:30.921Z,23.66
2018-05-31T00:12:05.465Z,23.64
2018-05-31T00:14:40.654Z,23.67
2018-05-31T00:17:15.558Z,23.70
2018-05-31T00:19:50.586Z,23.75
2018-05-31T00:22:25.609Z,23.80
2018-05-31T00:25:00.362Z,23.82
2018-05-31T00:27:35.345Z,23.78
2018-05-31T00:30:10.554Z,23.70
2018-05-31T00:32:45.974Z,23.60
2018-05-31T00:35:21.053Z,23.58
2018-05-31T00:37:56.207Z,23.57
2018-05-31T00:40:31.181Z,23.55
2018-05-31T00:43:06.422Z,23.50
2018-05-31T00:45:41.759Z,23.49
2018-05-31T00:48:17.009Z,23.51
2018-05-31T00:50:51.718Z,23.54
2018-05-31T00:53:26.500Z,23.53
2018-05-31T00:56:16.997Z,23.46
2018-05-31T00:58:51.657Z,23.34
2018-05-31T01:01:26.720Z,23.29
2018-05-31T01:04:01.810Z,23.30
2018-05-31T01:06:36.767Z,23.34
2018-05-31T01:09:12.218Z,23.35
2018-05-31T01:11:47.298Z,23.33
2018-05-31T01:14:22.386Z,23.32
2018-05-31T01:16:57.049Z,23.34
2018-05-31T01:19:31.870Z,23.31
2018-05-31T01:22:06.916Z,23.28
2018-05-31T01:24:41.859Z,23.24
2018-05-31T01:27:16.798Z,23.20
2018-05-31T01:29:53.210Z,23.15
2018-05-31T01:32:28.799Z,23.12
2018-05-31T01:35:04.055Z,23.08
2018-05-31T01:37:39.077Z,23.00
2018-05-31T01:40:14.382Z,22.97
2018-05-31T01:42:49.590Z,22.92
2018-05-31T01:45:24.798Z,22.86
2018-05-31T01:48:00.504Z,22.76
2018-05-31T01:50:35.781Z,22.70
2018-05-31T01:53:11.025Z,22.65
2018-05-31T01:55:45.924Z,22.60
2018-05-31T01:58:21.115Z,22.55
2018-05-31T02:00:56.065Z,22.53
2018-05-31T02:03:31.312Z,22.45
2018-05-31T02:06:05.606Z,22.35
2018-05-31T02:08:41.031Z,22.22
2018-05-31T02:11:16.166Z,22.06
2018-05-31T02:13:50.880Z,22.02
2018-05-31T02:16:26.345Z,22.08
2018-05-31T02:19:01.391Z,22.17
2018-05-31T02:21:36.209Z,22.24
2018-05-31T02:24:20.526Z,22.29
2018-05-31T02:26:55.193Z,22.33
2018-05-31T02:29:29.929Z,22.32
2018-05-31T02:32:04.651Z,22.32
2018-05-31T02:34:39.686Z,22.30
2018-05-31T02:37:14.534Z,22.23
2018-05-31T02:39:49.437Z,22.17
2018-05-31T02:42:24.490Z,22.18
2018-05-31T02:44:59.588Z,22.22
2018-05-31T02:47:34.749Z,22.27
2018-05-31T02:50:10.214Z,22.30
2018-05-31T02:52:45.130Z,22.34
2018-05-31T02:55:20.490Z,22.38
2018-05-31T02:57:55.634Z,22.40
2018-05-31T03:00:30.947Z,22.40
2018-05-31T03:03:06.035Z,22.40
2018-05-31T03:05:41.245Z,22.39
2018-05-31T03:08:16.698Z,22.35
2018-05-31T03:10:51.796Z,22.31
2018-05-31T03:13:27.010Z,22.27
2018-05-31T03:16:01.649Z,22.24
2018-05-31T03:18:36.337Z,22.23
2018-05-31T03:21:11.782Z,22.20
2018-05-31T03:23:47.104Z,22.15
2018-05-31T03:26:22.577Z,22.08
2018-05-31T03:28:57.699Z,22.03
2018-05-31T03:31:32.930Z,22.04
2018-05-31T03:34:08.471Z,22.05
2018-05-31T03:36:43.611Z,22.03
2018-05-31T03:39:18.366Z,21.96
2018-05-31T03:41:53.087Z,21.96
2018-05-31T03:44:27.894Z,21.99
2018-05-31T03:47:02.897Z,22.03
2018-05-31T03:49:37.601Z,22.04
2018-05-31T03:52:12.603Z,22.09
2018-05-31T03:54:47.564Z,22.12
2018-05-31T03:57:22.382Z,22.10
2018-05-31T03:59:57.493Z,22.04
2018-05-31T04:02:32.633Z,22.01
2018-05-31T04:05:07.774Z,22.00
2018-05-31T04:07:43.197Z,22.04
2018-05-31T04:10:18.382Z,22.10
2018-05-31T04:12:53.866Z,22.17
2018-05-31T04:15:29.444Z,22.23
2018-05-31T04:18:04.690Z,22.30
2018-05-31T04:20:39.594Z,22.38
2018-05-31T04:23:14.454Z,22.48
2018-05-31T04:25:49.286Z,22.57
2018-05-31T04:28:24.582Z,22.63
2018-05-31T04:30:59.201Z,22.69
2018-05-31T04:33:34.825Z,22.73
2018-05-31T04:36:10.045Z,22.72
2018-05-31T04:38:45.102Z,22.78
2018-05-31T04:41:20.136Z,22.85
2018-05-31T04:43:55.145Z,22.86
2018-05-31T04:46:30.289Z,22.88
2018-05-31T04:49:04.831Z,22.93
2018-05-31T04:51:39.773Z,22.93
2018-05-31T04:54:14.716Z,22.93
2018-05-31T04:56:49.601Z,22.90
2018-05-31T04:59:24.578Z,22.82
2018-05-31T05:01:59.246Z,22.82
2018-05-31T05:04:34.486Z,22.77
2018-05-31T05:07:09.486Z,22.75
2018-05-31T05:09:44.284Z,22.85
2018-05-31T05:12:19.256Z,23.01
2018-05-31T05:14:54.278Z,23.12
2018-05-31T05:17:29.311Z,23.19
2018-05-31T05:20:04.009Z,23.28
2018-05-31T05:22:38.579Z,23.31
2018-05-31T05:25:13.300Z,23.30
2018-05-31T05:27:48.930Z,23.29
2018-05-31T05:30:23.745Z,23.29
2018-05-31T05:32:58.349Z,23.25
2018-05-31T05:35:33.398Z,23.15
2018-05-31T05:38:08.445Z,23.06
2018-05-31T05:40:43.556Z,23.12
2018-05-31T05:43:18.403Z,23.23
2018-05-31T05:45:53.686Z,23.42
2018-05-31T05:48:29.018Z,23.58
2018-05-31T05:51:03.951Z,23.78
2018-05-31T05:53:38.767Z,24.00
2018-05-31T05:56:13.693Z,24.02
2018-05-31T05:58:48.779Z,23.93
2018-05-31T06:01:23.781Z,23.92
2018-05-31T06:03:58.922Z,23.82
2018-05-31T06:06:33.951Z,23.81
2018-05-31T06:09:08.769Z,23.89
2018-05-31T06:11:43.710Z,23.92
2018-05-31T06:14:18.554Z,24.01
2018-05-31T06:16:53.374Z,24.15
2018-05-31T06:19:28.582Z,24.27
2018-05-31T06:22:03.278Z,24.37
2018-05-31T06:24:38.558Z,24.48
2018-05-31T06:27:13.277Z,24.52
2018-05-31T06:29:48.359Z,24.63
2018-05-31T06:32:23.781Z,24.69
2018-05-31T06:34:59.042Z,24.74
2018-05-31T06:37:33.868Z,24.87
2018-05-31T06:40:08.810Z,25.06
2018-05-31T06:42:43.946Z,25.33
2018-05-31T06:45:18.968Z,25.66
2018-05-31T06:47:53.834Z,25.97
2018-05-31T06:50:28.339Z,26.19
2018-05-31T06:53:03.470Z,26.26
2018-05-31T06:55:38.458Z,26.34
2018-05-31T06:58:13.589Z,26.48
2018-05-31T07:00:48.354Z,26.68
2018-05-31T07:03:23.209Z,26.90
2018-05-31T07:05:58.410Z,26.98
2018-05-31T07:08:33.433Z,27.05
2018-05-31T07:11:08.637Z,27.20
2018-05-31T07:13:43.113Z,27.32
2018-05-31T07:16:18.041Z,27.44
2018-05-31T07:18:52.769Z,27.50
2018-05-31T07:21:27.643Z,27.53
2018-05-31T07:24:03.030Z,27.58
2018-05-31T07:26:37.684Z,27.65
2018-05-31T07:29:12.315Z,27.63
2018-05-31T07:31:47.448Z,27.61
2018-05-31T07:34:22.466Z,27.71
2018-05-31T07:36:57.174Z,27.84
2018-05-31T07:39:31.943Z,27.95
2018-05-31T07:42:07.258Z,27.96
2018-05-31T07:44:41.886Z,27.90
2018-05-31T07:47:16.981Z,27.86
2018-05-31T07:49:51.987Z,27.85
2018-05-31T07:52:27.310Z,27.92
2018-05-31T07:55:02.490Z,28.04
2018-05-31T07:57:37.323Z,28.12
2018-05-31T08:00:12.425Z,28.06
2018-05-31T08:02:47.282Z,28.07
2018-05-31T08:05:22.540Z,28.18
2018-05-31T08:07:57.490Z,28.32
2018-05-31T08:10:32.690Z,28.52
2018-05-31T08:13:08.065Z,28.65
2018-05-31T08:15:43.031Z,28.85
2018-05-31T08:18:18.212Z,29.06
2018-05-31T08:20:53.470Z,29.28
2018-05-31T08:23:28.491Z,29.42
2018-05-31T08:26:03.394Z,29.65
2018-05-31T08:28:38.278Z,29.81
2018-05-31T08:31:13.286Z,29.76
2018-05-31T08:33:47.910Z,29.74
2018-05-31T08:36:22.718Z,29.79
2018-05-31T08:38:57.565Z,29.86
2018-05-31T08:41:32.106Z,29.87
2018-05-31T08:44:06.832Z,29.95
2018-05-31T08:46:42.230Z,30.06
2018-05-31T08:49:17.340Z,30.13
2018-05-31T08:51:52.346Z,30.29
2018-05-31T08:54:27.714Z,30.50
2018-05-31T08:57:02.253Z,30.67
2018-05-31T08:59:37.318Z,30.91
2018-05-31T09:02:12.495Z,31.10
2018-05-31T09:04:47.946Z,31.09
2018-05-31T09:07:23.161Z,30.98
2018-05-31T09:09:58.418Z,30.77
2018-05-31T09:12:33.782Z,30.71
2018-05-31T09:15:08.241Z,30.76
2018-05-31T09:17:43.306Z,30.98
2018-05-31T09:20:18.063Z,31.31
2018-05-31T09:22:53.197Z,31.42
2018-05-31T09:25:28.207Z,31.39
2018-05-31T09:28:03.009Z,31.35
2018-05-31T09:30:38.058Z,31.53
2018-05-31T09:33:13.451Z,31.79
2018-05-31T09:35:48.659Z,31.89
2018-05-31T09:38:23.729Z,31.92
2018-05-31T09:40:58.490Z,31.93
2018-05-31T09:43:33.781Z,32.04
2018-05-31T09:46:08.733Z,32.12
2018-05-31T09:48:43.555Z,31.99
2018-05-31T09:51:18.881Z,31.98
2018-05-31T09:53:53.929Z,32.22
2018-05-31T09:56:28.980Z,32.48
2018-05-31T09:59:04.083Z,32.79
2018-05-31T10:01:38.642Z,32.97
2018-05-31T10:04:14.118Z,33.16
2018-05-31T10:06:49.222Z,33.15
2018-05-31T10:09:24.558Z,33.04
2018-05-31T10:11:59.879Z,32.98
2018-05-31T10:14:35.194Z,33.05
2018-05-31T10:17:10.039Z,33.10
2018-05-31T10:19:44.914Z,33.09
2018-05-31T10:22:19.924Z,33.14
2018-05-31T10:24:54.970Z,33.12
2018-05-31T10:27:29.807Z,33.27
2018-05-31T10:30:04.547Z,33.49
2018-05-31T10:32:39.959Z,33.75
2018-05-31T10:35:14.861Z,34.11
2018-05-31T10:37:49.593Z,34.53
2018-05-31T10:40:24.483Z,34.91
2018-05-31T10:42:58.942Z,35.25
2018-05-31T10:45:33.918Z,35.48
2018-05-31T10:48:08.734Z,35.55
2018-05-31T10:50:43.677Z,35.39
2018-05-31T10:53:18.517Z,35.14
2018-05-31T10:55:53.528Z,34.91
2018-05-31T10:58:28.476Z,34.79
2018-05-31T11:01:03.505Z,34.79
2018-05-31T11:03:38.637Z,34.77
2018-05-31T11:06:13.237Z,34.76
2018-05-31T11:08:47.694Z,34.67
2018-05-31T11:11:22.999Z,34.33
2018-05-31T11:13:57.928Z,34.39
2018-05-31T11:16:32.975Z,34.67
2018-05-31T11:19:08.111Z,34.99
2018-05-31T11:21:42.806Z,35.07
2018-05-31T11:24:17.811Z,34.80
2018-05-31T11:26:52.982Z,34.53
2018-05-31T11:29:28.088Z,34.61
2018-05-31T11:32:03.317Z,34.62
2018-05-31T11:34:38.678Z,34.74
2018-05-31T11:37:13.803Z,34.76
2018-05-31T11:39:48.861Z,34.72
2018-05-31T11:42:23.686Z,34.69
2018-05-31T11:44:58.805Z,34.72
2018-05-31T11:47:33.941Z,34.84
2018-05-31T11:50:09.067Z,34.92
2018-05-31T11:52:44.082Z,34.93
2018-05-31T11:55:19.275Z,35.31
2018-05-31T11:57:54.710Z,35.50
2018-05-31T12:00:29.646Z,35.58
2018-05-31T12:03:04.546Z,35.58
2018-05-31T12:05:39.638Z,35.18
2018-05-31T12:08:14.587Z,34.98
2018-05-31T12:10:49.403Z,35.12
2018-05-31T12:13:24.703Z,35.55
2018-05-31T12:15:59.555Z,35.84
2018-05-31T12:18:34.457Z,36.03
2018-05-31T12:21:08.996Z,36.26
2018-05-31T12:23:44.026Z,36.55
2018-05-31T12:26:18.708Z,36.58
2018-05-31T12:28:53.694Z,36.46
2018-05-31T12:31:28.754Z,36.29
2018-05-31T12:34:03.697Z,35.99
2018-05-31T12:36:38.697Z,35.46
2018-05-31T12:39:13.702Z,34.97
2018-05-31T12:41:48.814Z,34.86
2018-05-31T12:44:23.491Z,34.87
2018-05-31T12:46:58.639Z,34.94
2018-05-31T12:49:33.896Z,35.15
2018-05-31T12:52:08.782Z,35.64
2018-05-31T12:54:43.815Z,35.96
2018-05-31T12:57:19.003Z,36.07
2018-05-31T12:59:53.813Z,36.14
2018-05-31T13:02:28.754Z,35.99
2018-05-31T13:05:03.430Z,35.82
2018-05-31T13:07:38.722Z,35.41
2018-05-31T13:10:13.874Z,35.21
2018-05-31T13:12:48.679Z,35.27
2018-05-31T13:15:23.662Z,35.35
2018-05-31T13:17:58.547Z,35.47
2018-05-31T13:20:33.637Z,35.54
2018-05-31T13:23:08.443Z,35.55
2018-05-31T13:25:43.770Z,35.63
2018-05-31T13:28:18.869Z,35.73
2018-05-31T13:30:53.957Z,35.45
2018-05-31T13:33:29.310Z,35.21
2018-05-31T13:36:04.414Z,34.97
2018-05-31T13:38:39.716Z,34.96
2018-05-31T13:41:14.592Z,35.17
2018-05-31T13:43:50.126Z,35.47
2018-05-31T13:46:24.560Z,35.86
2018-05-31T13:48:59.750Z,36.11
2018-05-31T13:51:34.715Z,36.21
2018-05-31T13:54:09.924Z,35.99
2018-05-31T13:56:45.242Z,35.98
2018-05-31T13:59:20.557Z,35.98
2018-05-31T14:01:55.875Z,35.53
2018-05-31T14:04:31.031Z,35.28
2018-05-31T14:07:06.127Z,35.15
2018-05-31T14:09:41.604Z,34.81
2018-05-31T14:12:16.515Z,34.50
2018-05-31T14:14:51.527Z,34.61
2018-05-31T14:17:26.194Z,34.93
2018-05-31T14:20:01.154Z,34.98
2018-05-31T14:22:36.157Z,34.84
2018-05-31T14:25:11.225Z,34.49
2018-05-31T14:27:46.274Z,34.14
2018-05-31T14:30:21.414Z,34.00
2018-05-31T14:32:56.643Z,33.98
2018-05-31T14:35:31.897Z,34.10
2018-05-31T14:38:07.005Z,34.26
2018-05-31T14:40:42.178Z,34.49
2018-05-31T14:43:17.710Z,34.60
2018-05-31T14:45:52.638Z,34.53
2018-05-31T14:48:27.961Z,34.30
2018-05-31T14:51:03.143Z,34.21
2018-05-31T14:53:38.150Z,34.13
2018-05-31T14:56:13.255Z,34.05
2018-05-31T14:58:48.229Z,34.06
2018-05-31T15:01:23.013Z,34.08
2018-05-31T15:03:57.881Z,34.23
2018-05-31T15:06:32.871Z,34.45
2018-05-31T15:09:07.526Z,34.60
2018-05-31T15:11:42.629Z,34.62
2018-05-31T15:14:17.112Z,34.61
2018-05-31T15:16:52.159Z,34.57
2018-05-31T15:19:27.089Z,34.52
2018-05-31T15:22:02.206Z,34.46
2018-05-31T15:24:37.153Z,34.49
2018-05-31T15:27:11.996Z,34.38
2018-05-31T15:29:47.107Z,34.19
2018-05-31T15:32:22.212Z,33.97
2018-05-31T15:34:57.118Z,33.76
2018-05-31T15:37:31.588Z,33.48
2018-05-31T15:40:06.412Z,33.30
2018-05-31T15:42:41.427Z,33.21
2018-05-31T15:45:16.218Z,33.06
2018-05-31T15:47:51.038Z,32.88
2018-05-31T15:50:26.175Z,32.69
2018-05-31T15:53:01.316Z,32.58
2018-05-31T15:55:36.269Z,32.60
2018-05-31T15:58:10.966Z,32.57
2018-05-31T16:00:46.010Z,32.57
2018-05-31T16:03:21.271Z,32.51
2018-05-31T16:05:56.270Z,32.39
2018-05-31T16:08:31.165Z,32.33
2018-05-31T16:11:06.178Z,32.37
2018-05-31T16:13:40.707Z,32.42
2018-05-31T16:16:15.710Z,32.46
2018-05-31T16:18:50.660Z,32.46
2018-05-31T16:21:25.794Z,32.46
2018-05-31T16:24:01.032Z,32.43
2018-05-31T16:26:36.290Z,32.44
2018-05-31T16:29:10.811Z,32.46
2018-05-31T16:31:45.950Z,32.45
2018-05-31T16:34:21.279Z,32.46
2018-05-31T16:36:56.330Z,32.53
2018-05-31T16:39:31.762Z,32.61
2018-05-31T16:42:06.977Z,32.69
2018-05-31T16:44:42.337Z,32.75
2018-05-31T16:47:17.275Z,32.77
2018-05-31T16:49:52.327Z,32.74
2018-05-31T16:52:27.142Z,32.72
2018-05-31T16:55:02.202Z,32.71
2018-05-31T16:57:37.027Z,32.67
2018-05-31T17:00:12.141Z,32.61
2018-05-31T17:02:47.402Z,32.57
2018-05-31T17:05:22.545Z,31.95
2018-05-31T17:07:57.663Z,31.18
2018-05-31T17:10:32.602Z,30.46
2018-05-31T17:13:07.554Z,29.72
2018-05-31T17:15:42.691Z,28.93
2018-05-31T17:18:17.399Z,28.40
2018-05-31T17:20:52.228Z,27.98
2018-05-31T17:23:27.370Z,27.74
2018-05-31T17:26:02.502Z,27.56
2018-05-31T17:28:37.206Z,27.41
2018-05-31T17:31:11.775Z,27.21
2018-05-31T17:33:47.033Z,27.00
2018-05-31T17:36:22.350Z,26.91
2018-05-31T17:38:57.483Z,26.81
2018-05-31T17:41:32.862Z,26.67
2018-05-31T17:44:07.947Z,26.47
2018-05-31T17:46:43.083Z,26.31
2018-05-31T17:49:18.241Z,26.10
2018-05-31T17:51:53.273Z,25.94
2018-05-31T17:54:28.266Z,25.82
2018-05-31T17:57:03.299Z,25.67
2018-05-31T17:59:38.161Z,25.60
2018-05-31T18:02:13.225Z,25.53
2018-05-31T18:04:48.101Z,25.49
2018-05-31T18:07:23.179Z,25.47
2018-05-31T18:09:58.206Z,25.49
2018-05-31T18:12:33.544Z,25.47
2018-05-31T18:15:07.965Z,25.40
2018-05-31T18:17:43.032Z,25.33
2018-05-31T18:20:17.989Z,25.22
2018-05-31T18:22:53.077Z,25.15
2018-05-31T18:25:28.230Z,25.11
2018-05-31T18:28:03.497Z,25.06
2018-05-31T18:30:38.497Z,25.09
2018-05-31T18:33:13.738Z,25.09
2018-05-31T18:35:48.872Z,25.13
2018-05-31T18:38:23.784Z,25.24
2018-05-31T18:40:58.899Z,25.38
2018-05-31T18:43:34.274Z,25.50
2018-05-31T18:46:09.351Z,25.63
2018-05-31T18:48:43.965Z,25.73
2018-05-31T18:51:20.002Z,25.80
2018-05-31T18:53:54.974Z,25.85
2018-05-31T18:56:30.178Z,25.86
2018-05-31T18:59:05.308Z,25.88
2018-05-31T19:01:40.567Z,25.93
2018-05-31T19:04:15.887Z,25.91
2018-05-31T19:06:51.159Z,25.86
2018-05-31T19:09:31.372Z,25.77
2018-05-31T19:12:05.686Z,25.72
2018-05-31T19:14:40.871Z,25.72
2018-05-31T19:17:15.888Z,25.70
2018-05-31T19:19:55.488Z,25.67
2018-05-31T19:22:30.854Z,25.62
2018-05-31T19:25:11.269Z,25.58
2018-05-31T19:27:45.751Z,25.53
2018-05-31T19:30:26.102Z,25.51
2018-05-31T19:33:00.720Z,25.53
2018-05-31T19:35:41.302Z,25.54
2018-05-31T19:38:16.322Z,25.55
2018-05-31T19:40:51.426Z,25.48
2018-05-31T19:43:31.726Z,25.42
2018-05-31T19:46:06.371Z,25.38
2018-05-31T19:48:41.535Z,25.32
2018-05-31T19:51:21.971Z,25.27
2018-05-31T19:53:57.127Z,25.20
2018-05-31T19:56:32.360Z,25.15
2018-05-31T19:59:12.437Z,25.10
2018-05-31T20:01:53.009Z,25.05
2018-05-31T20:04:27.659Z,24.98
2018-05-31T20:07:02.799Z,24.94
2018-05-31T20:09:37.746Z,24.90
2018-05-31T20:12:13.084Z,24.88
2018-05-31T20:14:48.218Z,24.86
2018-05-31T20:17:23.254Z,24.83
2018-05-31T20:19:58.302Z,24.76
2018-05-31T20:22:32.964Z,24.67
2018-05-31T20:25:08.156Z,24.58
2018-05-31T20:27:43.040Z,24.51
2018-05-31T20:30:17.954Z,24.47
2018-05-31T20:32:52.680Z,24.44
2018-05-31T20:35:27.434Z,24.43
2018-05-31T20:38:02.346Z,24.42
2018-05-31T20:40:37.603Z,24.42
2018-05-31T20:43:12.538Z,24.43
2018-05-31T20:45:48.480Z,24.43
2018-05-31T20:48:23.625Z,24.40
2018-05-31T20:50:58.597Z,24.35
2018-05-31T20:53:33.813Z,24.32
2018-05-31T20:56:08.618Z,24.29
2018-05-31T20:58:43.864Z,24.29
2018-05-31T21:01:18.943Z,24.29
2018-05-31T21:03:53.977Z,24.27
2018-05-31T21:06:29.750Z,24.26
2018-05-31T21:09:04.382Z,24.21
2018-05-31T21:11:39.595Z,24.14
2018-05-31T21:14:15.159Z,24.04
2018-05-31T21:16:50.170Z,23.85
2018-05-31T21:19:26.059Z,23.56
2018-05-31T21:22:01.503Z,23.22
2018-05-31T21:24:38.483Z,23.07
2018-05-31T21:27:14.083Z,23.08
2018-05-31T21:29:49.170Z,23.16
2018-05-31T21:32:23.865Z,23.24
2018-05-31T21:34:58.982Z,23.30
2018-05-31T21:37:33.841Z,23.30
2018-05-31T21:40:08.737Z,23.32
2018-05-31T21:42:43.786Z,23.34
2018-05-31T21:45:18.817Z,23.32
2018-05-31T21:47:53.968Z,23.25
2018-05-31T21:50:28.999Z,23.18
2018-05-31T21:53:04.142Z,23.18
2018-05-31T21:55:39.059Z,23.18
2018-05-31T21:58:14.244Z,23.18
2018-05-31T22:00:54.614Z,23.19
2018-05-31T22:03:29.713Z,23.20
2018-05-31T22:06:04.343Z,23.19
2018-05-31T22:08:39.242Z,23.18
2018-05-31T22:11:14.210Z,23.14
2018-05-31T22:13:49.231Z,23.11
2018-05-31T22:16:23.933Z,23.06
2018-05-31T22:18:58.934Z,23.00
2018-05-31T22:21:34.126Z,22.96
2018-05-31T22:24:09.043Z,22.92
2018-05-31T22:26:43.247Z,22.88
2018-05-31T22:29:18.623Z,22.83
2018-05-31T22:31:53.346Z,22.73
2018-05-31T22:34:28.666Z,22.68
2018-05-31T22:37:03.835Z,22.67
2018-05-31T22:39:38.565Z,22.70
2018-05-31T22:42:13.040Z,22.73
2018-05-31T22:44:47.946Z,22.73
2018-05-31T22:47:23.114Z,22.74
2018-05-31T22:49:57.666Z,22.76
2018-05-31T22:52:32.443Z,22.77
2018-05-31T22:55:07.062Z,22.77
2018-05-31T22:57:42.098Z,22.76
2018-05-31T23:00:17.234Z,22.76
2018-05-31T23:02:51.900Z,22.74
2018-05-31T23:05:27.029Z,22.72
2018-05-31T23:08:01.731Z,22.67
2018-05-31T23:10:36.338Z,22.63
2018-05-31T23:13:11.417Z,22.60
2018-05-31T23:15:46.479Z,22.59
2018-05-31T23:18:21.737Z,22.57
2018-05-31T23:20:56.741Z,22.47
2018-05-31T23:23:31.738Z,22.28
2018-05-31T23:26:06.377Z,22.12
2018-05-31T23:28:41.394Z,22.07
2018-05-31T23:31:16.419Z,22.08
2018-05-31T23:33:50.940Z,22.12
2018-05-31T23:36:26.175Z,22.12
2018-05-31T23:39:01.145Z,22.11
2018-05-31T23:41:35.951Z,22.12
2018-05-31T23:44:10.890Z,22.08
2018-05-31T23:46:46.197Z,22.03
2018-05-31T23:49:20.926Z,22.00
2018-05-31T23:51:55.867Z,21.98
2018-05-31T23:54:30.714Z,21.96
2018-05-31T23:57:05.372Z,21.92
2018-05-31T23:59:40.374Z,21.88
